Leisure, Indiana
Current Conditions -  °F | °C
As of 12:15 PM on Sunday 21 Dec 2014 (Local Time) from KMZZ Reporting Station
Scattered Clouds Scattered Clouds  
Wind Chill: 26°   Ceiling: Unl
Heat Index: 33°   Visibility: 7mi
Dew Point: 28°   Wind: 7mph
Humidity: 82%   Direction: 160°SSE
Pressure: 30.24"   Gusts: NA
Location:  40.3067°N, 85.834°W
Report Text: KMZZ 211715Z AUTO 16006KT 7SM SCT016 00/M02 A3024 RMK AO2 T00041024
Loading
Personal Weather Stations






























Interactive Weather Map New forecast layout! Learn more

10-Day Weather Forecast

Advertisements
Track Severe Weather on mobile